Flight Track Log - Related Links

Times and Time Zones

All times are in EDT time to prevent confusion due to time zone crossing. See the N680AN flight status page for this flight to view local times or setup timezone preferences in your user account.

Time Position Orientation Groundspeed Altitude Reporting Facility
EDT Latitude Longitude Course Direction KTS MPH feet Rate Location/Type
Sat 07:52:02 AM 25.7972 -80.3092 104° East 171 197 800  Level Miami Center
Sat 07:52:57 AM 25.7942 -80.3575 266° West 184 212 2,800 2,308 Climbing Miami Center
Sat 07:53:46 AM 25.7886 -80.4128 264° West 251 289 4,800 2,500 Climbing Miami Center
Sat 07:54:00 AM 25.6787 -79.8876 104° East  Level FlightAware Approximate
Sat 07:54:09 AM 25.7858 -80.4381 263° West 258 297 5,800  Level Miami Center
Sat 07:54:47 AM 25.7372 -80.4619 204° Southwest 283 326 7,000 1,100 Climbing Miami Center
Sat 07:55:00 AM 25.6467 -79.7536 105° East  Level FlightAware Approximate
Sat 07:55:09 AM 25.7250 -80.4544 151° Southeast 283 326 6,900  Level Miami Center
Sat 07:55:47 AM 25.6603 -80.4481 175° South 290 334 8,800 2,900 Climbing Miami Center
Sat 07:56:00 AM 25.6260 -79.6180 104° East  Level FlightAware Approximate
Sat 07:56:09 AM 25.6292 -80.4447 174° South 291 335 9,800  Level Miami Center
Sat 07:56:54 AM 25.5822 -80.3950 136° Southeast 340 391 11,200 1,400 Climbing Miami Center
Sat 07:57:00 AM 25.5950 -79.4836 104° East  Level FlightAware Approximate
Sat 07:57:09 AM 25.5764 -80.3719 106° East 348 400 11,200  Level Miami Center
Sat 07:58:09 AM 25.5917 -80.2639 81° East 421 484 13,100 2,350 Climbing Miami Center
Sat 07:59:09 AM 25.6072 -80.1308 83° East 395 455 15,900 2,600 Climbing Miami Center
Sat 08:00:09 AM 25.6203 -80.0044 83° East 395 455 18,300 2,200 Climbing Miami Center
Sat 08:01:09 AM 25.6314 -79.8711 85° East 415 478 20,300 1,950 Climbing Miami Center
Sat 08:02:09 AM 25.6447 -79.7356 84° East 427 491 22,200 1,850 Climbing Miami Center
Sat 08:03:09 AM 25.6244 -79.5922 99° East 456 525 24,000 1,750 Climbing Miami Center
Sat 08:04:09 AM 25.5811 -79.4506 109° East 468 539 25,700 1,700 Climbing Miami Center
Sat 08:05:09 AM 25.5206 -79.3158 116° Southeast 475 547 27,400 1,650 Climbing Miami Center
Sat 08:06:09 AM 25.4581 -79.1811 117° Southeast 487 560 29,000 1,350 Climbing Miami Center
Sat 08:07:09 AM 25.3994 -79.0581 118° Southeast 502 578 30,100 1,000 Climbing Miami Center
Sat 08:08:09 AM 25.3283 -78.9119 118° Southeast 496 571 31,000 450 Climbing Miami Center
Sat 08:09:09 AM 25.2611 -78.7775 119° Southeast 496 571 31,000  Level Miami Center
Sat 08:10:09 AM 25.1981 -78.6389 117° Southeast 496 571 31,000  Level Miami Center
Sat 08:11:09 AM 25.1408 -78.5278 120° Southeast 502 578 31,000  Level Miami Center
Sat 08:12:09 AM 25.0694 -78.3800 118° Southeast 502 578 31,000  Level Miami Center
Sat 08:13:09 AM 25.0017 -78.2414 118° Southeast 507 583 31,000  Level Miami Center
Sat 08:14:09 AM 24.9339 -78.1033 118° Southeast 507 583 31,000  Level Miami Center
Sat 08:15:09 AM 24.8661 -77.9650 118° Southeast 507 583 31,000  Level Miami Center
Sat 08:16:09 AM 24.7981 -77.8272 119° Southeast 507 583 31,000  Level Miami Center
Sat 08:17:09 AM 24.7217 -77.6756 119° Southeast 512 589 31,000  Level Miami Center
Sat 08:18:09 AM 24.6533 -77.5381 119° Southeast 512 589 31,000  Level Miami Center
Sat 08:19:09 AM 24.5872 -77.4006 118° Southeast 512 589 31,000  Level Miami Center
Sat 08:20:09 AM 24.5206 -77.2608 118° Southeast 507 583 31,000  Level Miami Center
Sat 08:21:09 AM 24.4519 -77.1236 119° Southeast 507 583 31,000  Level Miami Center
Sat 08:22:09 AM 24.3831 -76.9867 119° Southeast 507 583 31,000  Level Miami Center
Sat 08:23:09 AM 24.3164 -76.8497 118° Southeast 507 583 31,000  Level Miami Center
Sat 08:24:09 AM 24.2472 -76.7153 119° Southeast 507 583 31,000  Level Miami Center
Sat 08:25:09 AM 24.1822 -76.5808 118° Southeast 507 583 31,000  Level Miami Center
Sat 08:26:09 AM 24.1131 -76.4422 119° Southeast 507 583 31,000  Level Miami Center
Sat 08:27:09 AM 24.0436 -76.3058 119° Southeast 507 583 31,000  Level Miami Center
Sat 08:28:09 AM 23.9742 -76.1653 118° Southeast 513 590 31,000  Level Miami Center
Sat 08:29:09 AM 23.9022 -76.0292 120° Southeast 513 590 31,000  Level Miami Center
Sat 08:30:09 AM 23.8303 -75.8867 119° Southeast 519 597 31,000  Level Miami Center
Sat 08:31:09 AM 23.7689 -75.7622 118° Southeast 524 603 31,000  Level Miami Center
Sat 08:32:09 AM 23.6947 -75.6175 119° Southeast 524 603 31,000  Level Miami Center
Sat 08:33:09 AM 23.6203 -75.4733 119° Southeast 530 610 31,000  Level Miami Center
Sat 08:34:09 AM 23.5478 -75.3314 119° Southeast 535 616 31,000  Level Miami Center
Sat 08:35:09 AM 23.4731 -75.1917 120° Southeast 535 616 31,000  Level Miami Center
Sat 08:36:09 AM 23.4006 -75.0500 119° Southeast 535 616 31,000  Level Miami Center
Sat 08:37:09 AM 23.3256 -74.9086 120° Southeast 535 616 31,000  Level Miami Center
Sat 08:38:09 AM 23.2528 -74.7717 120° Southeast 535 616 31,000  Level Miami Center
Sat 08:39:09 AM 23.1797 -74.6328 120° Southeast 523 602 31,000  Level Miami Center
Sat 08:40:09 AM 23.1064 -74.4964 120° Southeast 523 602 31,000  Level Miami Center
Sat 08:41:09 AM 23.0292 -74.3578 121° Southeast 523 602 31,000  Level Miami Center
Sat 08:42:09 AM 22.9600 -74.2217 119° Southeast 523 602 31,000  Level Miami Center
Sat 08:43:09 AM 22.8800 -74.0722 120° Southeast 523 602 31,000  Level Miami Center
Sat 08:44:09 AM 22.8042 -73.9342 121° Southeast 523 602 31,000  Level Miami Center
Sat 08:45:09 AM 22.7283 -73.7986 121° Southeast 523 602 31,000  Level Miami Center
Sat 08:46:09 AM 22.6586 -73.6583 118° Southeast 523 602 31,000  Level Miami Center
Sat 08:47:09 AM 22.5847 -73.5186 120° Southeast 523 602 31,000  Level Miami Center
Sat 08:48:09 AM 22.5128 -73.3856 120° Southeast 523 602 31,000  Level Miami Center
Sat 08:49:09 AM 22.4450 -73.2592 120° Southeast 518 596 31,000  Level Miami Center
Sat 08:50:09 AM 22.3708 -73.1244 121° Southeast 523 602 31,000  Level Miami Center
Sat 08:51:09 AM 22.2964 -72.9875 120° Southeast 523 602 31,000  Level Miami Center
Sat 08:52:09 AM 22.2261 -72.8528 119° Southeast 523 602 31,000  Level Miami Center
Sat 08:53:09 AM 22.1514 -72.7161 121° Southeast 523 602 31,000  Level Miami Center
Sat 08:54:09 AM 22.0806 -72.5750 118° Southeast 523 602 31,000  Level Miami Center
Sat 08:55:09 AM 22.0058 -72.4386 121° Southeast 523 602 31,000  Level Miami Center
Sat 08:56:09 AM 21.9411 -72.2953 116° Southeast 523 602 31,000  Level Miami Center
Sat 08:57:09 AM 21.8803 -72.1497 114° Southeast 528 608 31,000  Level Miami Center
Sat 08:58:09 AM 21.8092 -72.0117 119° Southeast 523 602 31,000  Level Miami Center
Sat 08:59:09 AM 21.7339 -71.8758 121° Southeast 523 602 31,000  Level Miami Center
Sat 09:00:09 AM 21.6586 -71.7425 121° Southeast 529 609 31,000  Level Miami Center
Sat 09:01:09 AM 21.5808 -71.6094 122° Southeast 524 603 31,000  Level Miami Center
Sat 09:02:09 AM 21.5053 -71.4742 121° Southeast 524 603 31,000  Level Miami Center
Sat 09:03:09 AM 21.4275 -71.3414 122° Southeast 524 603 31,000  Level Miami Center
Sat 09:04:09 AM 21.3456 -71.2067 123° Southeast 531 611 31,000  Level Miami Center
Sat 09:05:09 AM 21.2672 -71.0656 121° Southeast 543 625 31,000  Level Miami Center
Sat 09:06:09 AM 21.1956 -70.9331 120° Southeast 536 617 31,000  Level Miami Center
Sat 09:07:09 AM 21.1217 -70.8006 121° Southeast 525 604 31,000  Level Miami Center
Sat 09:08:09 AM 21.0456 -70.6708 122° Southeast 520 598 31,000  Level Miami Center
Sat 09:09:09 AM 20.9692 -70.5389 122° Southeast 520 598 31,000  Level Miami Center
Sat 09:10:09 AM 20.8950 -70.4069 121° Southeast 520 598 31,000  Level Miami Center
Sat 09:11:09 AM 20.8167 -70.2778 123° Southeast 520 598 31,000  Level Miami Center
Sat 09:12:09 AM 20.7400 -70.1442 122° Southeast 520 598 31,000  Level Miami Center
Sat 09:13:09 AM 20.6633 -70.0128 122° Southeast 520 598 31,000  Level Miami Center
Sat 09:14:09 AM 20.5867 -69.8817 122° Southeast 520 598 31,000  Level Miami Center
Sat 09:15:09 AM 20.5100 -69.7486 122° Southeast 520 598 31,000  Level Miami Center
Sat 09:16:09 AM 20.4331 -69.6156 122° Southeast 520 598 31,000  Level Miami Center
Sat 09:17:09 AM 20.3539 -69.4850 123° Southeast 525 604 31,000  Level Miami Center
Sat 09:18:09 AM 20.2747 -69.3547 123° Southeast 525 604 31,000  Level Miami Center
Sat 09:19:09 AM 20.1997 -69.2219 121° Southeast 525 604 31,000  Level Miami Center
Sat 09:20:09 AM 20.1244 -69.0917 122° Southeast 525 604 31,000  Level Miami Center
Sat 09:21:09 AM 20.0472 -68.9617 122° Southeast 519 597 31,000  Level Miami Center
Sat 09:22:09 AM 19.9781 -68.8292 119° Southeast 519 597 31,000  Level Miami Center
Sat 09:23:09 AM 19.9003 -68.6950 122° Southeast 519 597 31,000  Level Miami Center
Sat 09:24:09 AM 19.8289 -68.5628 120° Southeast 519 597 31,000  Level Miami Center
Sat 09:25:09 AM 19.7553 -68.4308 121° Southeast 519 597 31,000  Level Miami Center
Sat 09:25:50 AM 19.7167 -68.3333 113° Southeast 510 587 31,000  Level San Juan Center
Sat 09:26:50 AM 19.6333 -68.2000 124° Southeast 520 598 31,000  Level San Juan Center
Sat 09:27:50 AM 19.5667 -68.0667 118° Southeast 510 587 31,000  Level San Juan Center
Sat 09:28:51 AM 19.4833 -67.9333 124° Southeast 510 587 31,000 -496 Level San Juan Center
Sat 09:29:51 AM 19.4167 -67.8167 121° Southeast 510 587 30,000 -1,500 Descending San Juan Center
Sat 09:30:51 AM 19.3500 -67.6833 118° Southeast 500 575 28,000 -1,835 Descending San Juan Center
Sat 09:31:52 AM 19.2667 -67.5667 127° Southeast 480 552 26,300 -1,835 Descending San Juan Center
Sat 09:32:52 AM 19.2167 -67.4333 112° Southeast 470 541 24,300 -1,950 Descending San Juan Center
Sat 09:33:52 AM 19.1500 -67.3167 121° Southeast 460 529 22,400 -1,934 Descending San Juan Center
Sat 09:34:53 AM 19.0833 -67.2000 121° Southeast 460 529 20,400 -1,934 Descending San Juan Center
Sat 09:35:53 AM 19.0167 -67.1000 125° Southeast 440 506 18,500 -1,950 Descending San Juan Center
Sat 09:36:53 AM 18.9500 -66.9667 118° Southeast 420 483 16,500 -1,884 Descending San Juan Center
Sat 09:37:54 AM 18.9000 -66.8667 118° Southeast 390 449 14,700 -1,750 Descending San Juan Center
Sat 09:38:53 AM 18.8500 -66.7833 122° Southeast 380 437 13,000 -1,650 Descending San Juan Center
Sat 09:39:54 AM 18.8000 -66.6833 118° Southeast 360 414 11,400 -1,240 Descending San Juan Center
Sat 09:40:54 AM 18.7500 -66.6000 122° Southeast 330 380 10,500 -1,100 Descending San Juan Center
Sat 09:41:54 AM 18.7000 -66.5167 122° Southeast 300 345 9,200 -1,388 Descending San Juan Center
Sat 09:42:55 AM 18.6500 -66.4500 128° Southeast 300 345 7,700 -1,537 Descending San Juan Center
Sat 09:43:55 AM 18.6000 -66.3833 128° Southeast 280 322 6,100 -1,500 Descending San Juan Center
Sat 09:44:55 AM 18.5667 -66.3167 118° Southeast 270 311 4,700 -1,289 Descending San Juan Center
Sat 09:45:56 AM 18.5333 -66.2500 118° Southeast 230 265 3,500 -893 Descending San Juan Center
Sat 09:46:56 AM 18.5000 -66.2000 125° Southeast 230 265 2,900 -650 Descending San Juan Center
Sat 09:47:56 AM 18.4667 -66.1500 125° Southeast 210 242 2,200 -700 Descending San Juan Center

Login

Don't have an account? Register now (free) for customized features, flight alerts, and more!